Time;durP1;ratioP1;P1;durP2;ratioP2;P2;SDS_P1;SDS_P2;PMS_P1;PMS_P2;Temp;Humidity;BMP_temperature;BMP_pressure;BME280_temperature;BME280_humidity;BME280_pressure;Samples;Min_cycle;Max_cycle;Signal;HPM_P1;HPM_P2
2021/06/30 00:00:13;;;;;;;4.05;3.63;;;;;;;15.16;100.00;101084.56;3572992;40;20055;-63
2021/06/30 00:02:40;;;;;;;6.05;4.25;;;;;;;15.11;100.00;101078.78;3580035;40;20045;-63
2021/06/30 00:05:08;;;;;;;5.00;3.83;;;;;;;15.16;100.00;101068.28;3578309;40;20416;-63
2021/06/30 00:07:35;;;;;;;5.53;3.85;;;;;;;15.20;100.00;101074.25;3576680;40;20074;-62
2021/06/30 00:10:02;;;;;;;6.05;3.90;;;;;;;15.21;100.00;101073.25;3577503;40;20046;-62
2021/06/30 00:12:28;;;;;;;6.65;4.20;;;;;;;15.27;100.00;101072.59;3577367;40;20044;-62
2021/06/30 00:14:56;;;;;;;7.97;4.65;;;;;;;15.30;100.00;101066.03;3583243;40;20069;-62
2021/06/30 00:17:23;;;;;;;6.78;4.25;;;;;;;15.11;100.00;101061.69;3578540;40;20123;-62
2021/06/30 00:19:49;;;;;;;6.20;4.93;;;;;;;15.18;100.00;101079.84;3582843;40;20055;-62
2021/06/30 00:22:16;;;;;;;6.25;4.65;;;;;;;15.36;100.00;101076.22;3575954;40;20044;-63
2021/06/30 00:24:42;;;;;;;8.05;3.97;;;;;;;15.27;100.00;101086.16;3579133;40;20115;-63
2021/06/30 00:27:09;;;;;;;8.68;4.60;;;;;;;15.18;100.00;101087.97;3579168;40;20061;-63
2021/06/30 00:29:36;;;;;;;7.50;5.22;;;;;;;15.21;100.00;101084.94;3585688;40;20045;-63
2021/06/30 00:32:04;;;;;;;5.95;4.47;;;;;;;15.32;100.00;101080.25;3578721;40;20041;-62
2021/06/30 00:34:31;;;;;;;7.20;4.80;;;;;;;15.33;100.00;101077.38;3578556;40;20061;-63
2021/06/30 00:36:57;;;;;;;6.78;4.40;;;;;;;15.38;100.00;101076.88;3581374;40;20041;-63
2021/06/30 00:39:24;;;;;;;7.30;4.38;;;;;;;15.34;100.00;101073.66;3580705;40;20052;-63
2021/06/30 00:41:51;;;;;;;6.25;4.68;;;;;;;15.35;100.00;101071.78;3579320;40;20040;-63
2021/06/30 00:44:17;;;;;;;6.40;4.63;;;;;;;15.19;100.00;101069.84;3578264;40;20041;-62
2021/06/30 00:46:44;;;;;;;7.43;4.30;;;;;;;15.24;100.00;101064.81;3579386;40;20047;-63
2021/06/30 00:49:12;;;;;;;6.13;4.78;;;;;;;15.26;100.00;101054.63;3576334;40;20069;-62
2021/06/30 00:51:38;;;;;;;7.15;4.82;;;;;;;15.30;100.00;101057.88;3576567;40;21590;-62
2021/06/30 00:54:05;;;;;;;6.45;4.90;;;;;;;15.35;100.00;101063.66;3578565;40;20061;-63
2021/06/30 00:56:32;;;;;;;6.82;4.70;;;;;;;15.48;100.00;101065.94;3576822;40;20033;-62
2021/06/30 00:58:59;;;;;;;6.00;3.95;;;;;;;15.44;100.00;101059.97;3580785;40;20319;-63
2021/06/30 01:01:27;;;;;;;5.78;4.50;;;;;;;15.31;100.00;101065.84;3576087;40;20067;-63
2021/06/30 01:03:55;;;;;;;6.25;4.95;;;;;;;15.33;100.00;101058.41;3577954;40;20315;-62
2021/06/30 01:06:23;;;;;;;7.22;4.80;;;;;;;15.37;100.00;101048.94;3576430;40;20079;-62
2021/06/30 01:08:50;;;;;;;6.60;4.70;;;;;;;15.35;100.00;101044.66;3582041;40;20084;-62
2021/06/30 01:11:17;;;;;;;5.68;4.00;;;;;;;15.37;100.00;101040.78;3575919;40;20327;-62
2021/06/30 01:13:44;;;;;;;6.65;4.40;;;;;;;15.24;100.00;101041.25;3579546;40;20073;-62
2021/06/30 01:16:10;;;;;;;5.25;4.00;;;;;;;15.31;100.00;101046.00;3578831;40;20037;-62
2021/06/30 01:18:38;;;;;;;5.10;4.07;;;;;;;15.25;100.00;101036.66;3581724;40;20059;-62
2021/06/30 01:21:06;;;;;;;7.80;4.68;;;;;;;15.28;100.00;101046.34;3580009;40;20057;-62
2021/06/30 01:23:34;;;;;;;6.65;4.03;;;;;;;15.36;100.00;101041.78;3579568;40;20037;-63
2021/06/30 01:26:01;;;;;;;6.88;4.07;;;;;;;15.40;100.00;101051.31;3579786;40;20041;-62
2021/06/30 01:28:28;;;;;;;4.68;3.95;;;;;;;15.37;100.00;101051.63;3575067;40;20059;-63
2021/06/30 01:30:55;;;;;;;9.18;4.35;;;;;;;15.23;100.00;101049.53;3578943;40;20088;-62
2021/06/30 01:33:22;;;;;;;6.78;4.10;;;;;;;15.19;100.00;101050.88;3575167;40;20069;-61
2021/06/30 01:35:49;;;;;;;5.70;4.35;;;;;;;15.28;100.00;101049.03;3578922;40;20067;-62
2021/06/30 01:38:21;;;;;;;6.30;4.05;;;;;;;15.27;100.00;101050.91;3575385;40;20041;-62
2021/06/30 01:40:49;;;;;;;6.63;4.25;;;;;;;15.21;100.00;101051.56;3579174;40;20039;-62
2021/06/30 01:43:16;;;;;;;7.20;4.35;;;;;;;15.21;100.00;101049.69;3581629;40;20305;-62
2021/06/30 01:45:42;;;;;;;5.55;4.28;;;;;;;15.25;100.00;101050.22;3581069;40;20052;-61
2021/06/30 01:48:08;;;;;;;5.88;4.05;;;;;;;15.25;100.00;101047.50;3578693;40;20056;-62
2021/06/30 01:50:35;;;;;;;6.22;4.50;;;;;;;15.19;100.00;101045.44;3578798;40;20043;-61
2021/06/30 01:53:02;;;;;;;6.93;5.05;;;;;;;15.18;100.00;101047.31;3579004;40;20043;-61
2021/06/30 02:01:56;;;;;;;8.77;5.70;;;;;;;15.28;100.00;101046.34;3607933;22;20445;-61
2021/06/30 02:04:23;;;;;;;7.05;5.82;;;;;;;15.18;100.00;101041.03;3585171;40;20048;-62
2021/06/30 02:06:49;;;;;;;8.35;5.93;;;;;;;15.11;100.00;101034.56;3585341;40;20054;-61
2021/06/30 02:09:15;;;;;;;8.45;5.32;;;;;;;15.10;100.00;101028.28;3585313;40;20044;-61
2021/06/30 02:11:42;;;;;;;8.23;5.47;;;;;;;15.09;100.00;101037.44;3585964;40;20396;-62
2021/06/30 02:14:11;;;;;;;9.10;5.95;;;;;;;15.12;100.00;101025.41;3584618;40;20036;-62
2021/06/30 02:16:38;;;;;;;6.45;5.32;;;;;;;15.14;100.00;101020.69;3586178;40;20056;-61
2021/06/30 02:19:06;;;;;;;8.40;5.55;;;;;;;15.22;100.00;101015.28;3586241;40;20080;-61
2021/06/30 02:21:33;;;;;;;8.40;5.78;;;;;;;15.14;100.00;101012.56;3582158;40;20093;-61
2021/06/30 02:24:00;;;;;;;7.70;5.47;;;;;;;15.14;100.00;101017.97;3585002;40;20029;-61
2021/06/30 02:26:28;;;;;;;7.85;5.32;;;;;;;15.29;100.00;101012.78;3585470;40;20299;-62
2021/06/30 02:28:55;;;;;;;9.95;5.93;;;;;;;15.24;100.00;101024.13;3585501;40;20044;-61
2021/06/30 02:31:23;;;;;;;8.80;5.40;;;;;;;15.19;100.00;101015.63;3585546;40;22769;-61
2021/06/30 02:33:50;;;;;;;8.83;4.57;;;;;;;15.23;100.00;101017.00;3585805;40;20038;-61
2021/06/30 02:36:17;;;;;;;8.18;5.28;;;;;;;15.23;100.00;101014.28;3585720;40;20049;-61
2021/06/30 02:38:43;;;;;;;8.50;4.90;;;;;;;15.17;100.00;101006.81;3585527;40;20056;-61
2021/06/30 02:41:10;;;;;;;12.10;5.13;;;;;;;15.21;100.00;101008.19;3585498;40;20033;-61
2021/06/30 02:43:36;;;;;;;6.00;4.55;;;;;;;15.04;100.00;101010.78;3582956;40;20049;-61
2021/06/30 02:46:03;;;;;;;6.35;4.85;;;;;;;15.05;100.00;101007.09;3584218;40;20049;-62
2021/06/30 02:48:31;;;;;;;6.35;5.00;;;;;;;15.06;100.00;100999.78;3587377;40;20040;-62
2021/06/30 02:50:58;;;;;;;7.78;4.47;;;;;;;15.00;100.00;100995.91;3583942;40;20036;-62
2021/06/30 02:53:24;;;;;;;7.40;5.28;;;;;;;14.92;100.00;101003.13;3584534;40;20156;-62
2021/06/30 02:55:51;;;;;;;7.53;4.50;;;;;;;15.03;100.00;100989.28;3582569;40;20047;-62
2021/06/30 02:58:18;;;;;;;5.65;4.20;;;;;;;14.86;100.00;100991.06;3578918;40;20362;-62
2021/06/30 03:00:44;;;;;;;5.18;4.15;;;;;;;14.84;100.00;100990.38;3584614;40;20081;-62
2021/06/30 03:03:10;;;;;;;5.78;4.03;;;;;;;14.93;100.00;100989.41;3575452;40;20029;-62
2021/06/30 03:05:38;;;;;;;5.85;4.40;;;;;;;14.96;100.00;100994.50;3574211;40;20367;-61
2021/06/30 03:08:05;;;;;;;6.53;4.00;;;;;;;14.87;100.00;100995.50;3574908;40;20081;-62
2021/06/30 03:10:32;;;;;;;7.18;4.75;;;;;;;14.86;100.00;101004.63;3571604;40;20049;-61
2021/06/30 03:12:58;;;;;;;6.75;4.50;;;;;;;14.95;100.00;101003.66;3574842;40;20098;-61
2021/06/30 03:15:25;;;;;;;10.77;5.65;;;;;;;14.89;100.00;101015.13;3574188;40;20596;-61
2021/06/30 03:17:51;;;;;;;7.28;5.15;;;;;;;14.86;100.00;101020.88;3575152;40;20053;-61
2021/06/30 03:20:18;;;;;;;8.98;5.53;;;;;;;15.00;100.00;101024.84;3574201;40;20049;-62
2021/06/30 03:22:45;;;;;;;8.55;4.95;;;;;;;15.04;100.00;101027.06;3572968;40;20051;-61
2021/06/30 03:25:14;;;;;;;7.20;5.43;;;;;;;14.92;100.00;101025.66;3573307;40;21002;-62
2021/06/30 03:27:42;;;;;;;7.33;5.13;;;;;;;14.91;100.00;101032.06;3572689;40;20061;-62
2021/06/30 03:30:10;;;;;;;6.78;5.28;;;;;;;14.91;100.00;101033.94;3574117;40;20041;-62
2021/06/30 03:32:37;;;;;;;7.90;4.97;;;;;;;14.85;100.00;101040.84;3576951;40;20073;-62
2021/06/30 03:35:05;;;;;;;8.07;4.97;;;;;;;14.82;100.00;101052.84;3569537;40;20052;-62
2021/06/30 03:37:31;;;;;;;8.80;5.40;;;;;;;14.74;100.00;101052.81;3568625;40;20055;-62
2021/06/30 03:40:00;;;;;;;6.57;5.60;;;;;;;14.77;100.00;101059.78;3568654;40;20044;-61
2021/06/30 03:42:26;;;;;;;9.02;5.85;;;;;;;14.69;100.00;101061.41;3564573;40;20184;-61
2021/06/30 03:44:53;;;;;;;8.90;5.50;;;;;;;14.79;100.00;101050.47;3567759;40;20053;-62
2021/06/30 03:47:20;;;;;;;9.02;5.22;;;;;;;14.82;100.00;101044.72;3569221;40;20315;-62
2021/06/30 03:49:46;;;;;;;7.97;5.70;;;;;;;14.73;100.00;101048.38;3565089;40;20335;-62
2021/06/30 03:52:12;;;;;;;7.32;5.75;;;;;;;14.70;100.00;101044.13;3565909;40;20064;-62
2021/06/30 03:54:39;;;;;;;7.43;5.80;;;;;;;14.80;100.00;101032.38;3574653;40;20292;-63
2021/06/30 03:57:07;;;;;;;8.90;6.30;;;;;;;14.76;100.00;101020.13;3575220;40;20060;-63
2021/06/30 03:59:33;;;;;;;7.38;6.07;;;;;;;14.71;100.00;101018.75;3575871;40;20056;-61
2021/06/30 04:02:00;;;;;;;9.13;5.80;;;;;;;14.75;100.00;101030.09;3573592;40;20073;-61
2021/06/30 04:04:26;;;;;;;9.40;5.97;;;;;;;14.65;100.00;101030.22;3573048;40;20190;-62
2021/06/30 04:06:53;;;;;;;8.90;6.13;;;;;;;14.71;100.00;101040.44;3568224;40;20330;-63
2021/06/30 04:09:19;;;;;;;8.82;6.70;;;;;;;14.75;100.00;101043.66;3565008;40;20056;-61
2021/06/30 04:11:46;;;;;;;13.20;6.90;;;;;;;14.77;100.00;101044.38;3564302;40;20307;-61
2021/06/30 04:14:13;;;;;;;7.38;6.00;;;;;;;14.82;100.00;101035.75;3563033;40;20045;-62
2021/06/30 04:16:40;;;;;;;7.60;6.30;;;;;;;14.87;100.00;101038.84;3563982;40;20055;-62
2021/06/30 04:19:07;;;;;;;9.70;6.57;;;;;;;14.74;100.00;101038.41;3564009;40;20045;-62
2021/06/30 04:21:33;;;;;;;7.22;5.85;;;;;;;14.75;100.00;101045.53;3564861;40;20387;-62
2021/06/30 04:24:00;;;;;;;8.50;6.47;;;;;;;14.78;100.00;101045.19;3562564;40;20532;-63
2021/06/30 04:26:26;;;;;;;8.32;6.93;;;;;;;14.68;100.00;101043.44;3563810;40;20336;-62
2021/06/30 04:28:53;;;;;;;8.00;6.55;;;;;;;14.67;100.00;101044.44;3568594;40;20043;-62
2021/06/30 04:31:21;;;;;;;7.85;6.03;;;;;;;14.71;100.00;101040.44;3566974;40;20045;-62
2021/06/30 04:33:47;;;;;;;9.13;6.25;;;;;;;14.69;100.00;101042.44;3568005;40;20032;-62
2021/06/30 04:36:15;;;;;;;7.90;5.95;;;;;;;14.73;100.00;101044.84;3564648;40;20509;-62
2021/06/30 04:38:42;;;;;;;7.57;5.95;;;;;;;14.79;100.00;101041.50;3568325;40;20057;-62
2021/06/30 04:41:09;;;;;;;6.45;5.50;;;;;;;14.69;100.00;101038.88;3564876;40;20041;-62
2021/06/30 04:43:36;;;;;;;7.85;6.03;;;;;;;14.59;100.00;101036.25;3564774;40;20049;-62
2021/06/30 04:46:02;;;;;;;8.07;6.45;;;;;;;14.66;100.00;101044.63;3565231;40;20269;-62
2021/06/30 04:48:30;;;;;;;6.65;5.85;;;;;;;14.74;100.00;101041.97;3562668;40;22139;-62
2021/06/30 04:50:56;;;;;;;7.35;6.50;;;;;;;14.77;100.00;101049.78;3564760;40;20138;-62
2021/06/30 04:53:23;;;;;;;12.20;7.28;;;;;;;14.74;100.00;101041.97;3567264;40;20057;-61
2021/06/30 04:55:49;;;;;;;6.95;5.90;;;;;;;14.73;100.00;101042.13;3567314;40;20051;-62
2021/06/30 04:58:17;;;;;;;7.97;6.00;;;;;;;14.73;100.00;101042.97;3565280;40;20048;-62
2021/06/30 05:00:44;;;;;;;8.07;6.80;;;;;;;14.71;100.00;101037.72;3565472;40;20045;-62
2021/06/30 05:03:11;;;;;;;7.57;6.45;;;;;;;14.60;100.00;101037.94;3570850;40;20076;-62
2021/06/30 05:05:38;;;;;;;9.20;7.10;;;;;;;14.64;100.00;101039.34;3569794;40;20326;-62
2021/06/30 05:08:06;;;;;;;10.70;6.88;;;;;;;14.56;100.00;101031.16;3570368;40;20044;-62
2021/06/30 05:10:32;;;;;;;9.00;7.13;;;;;;;14.70;100.00;101033.28;3563727;40;20044;-61
2021/06/30 05:12:58;;;;;;;11.05;7.70;;;;;;;14.63;100.00;101034.94;3568846;40;20040;-61
2021/06/30 05:15:25;;;;;;;10.52;8.05;;;;;;;14.70;100.00;101032.47;3569487;40;20044;-62
2021/06/30 05:17:52;;;;;;;8.93;7.75;;;;;;;14.74;100.00;101027.56;3568024;40;20041;-62
2021/06/30 05:20:18;;;;;;;12.43;8.68;;;;;;;14.78;100.00;101018.09;3567564;40;20057;-62
2021/06/30 05:22:46;;;;;;;11.65;8.40;;;;;;;14.60;100.00;101027.09;3569937;40;20052;-62
2021/06/30 05:25:13;;;;;;;11.65;8.40;;;;;;;14.63;100.00;101031.38;3569026;40;20049;-61
2021/06/30 05:27:40;;;;;;;10.48;8.43;;;;;;;14.61;100.00;101030.69;3599721;22;20061;-61
2021/06/30 05:30:08;;;;;;;9.73;8.20;;;;;;;14.57;100.00;101032.84;3560670;40;20302;-61
2021/06/30 05:32:34;;;;;;;13.18;8.93;;;;;;;14.65;100.00;101032.94;3561834;40;20053;-62
2021/06/30 05:35:01;;;;;;;9.55;8.55;;;;;;;14.80;100.00;101026.94;3557073;40;20067;-62
2021/06/30 05:37:27;;;;;;;10.27;8.93;;;;;;;14.70;100.00;101027.03;3557449;40;20061;-62
2021/06/30 05:39:55;;;;;;;12.43;9.00;;;;;;;14.69;100.00;101031.63;3560566;40;20396;-61
2021/06/30 05:42:22;;;;;;;12.80;9.18;;;;;;;14.76;100.00;101036.41;3554610;40;20077;-61
2021/06/30 05:44:48;;;;;;;12.00;8.85;;;;;;;14.78;100.00;101039.78;3557110;40;20113;-61
2021/06/30 05:47:15;;;;;;;11.55;9.10;;;;;;;14.76;100.00;101052.66;3558341;40;20063;-61
2021/06/30 05:49:41;;;;;;;14.05;9.10;;;;;;;14.80;100.00;101049.47;3557743;40;20057;-61
2021/06/30 05:52:08;;;;;;;11.27;8.70;;;;;;;14.76;100.00;101049.94;3556765;40;20064;-62
2021/06/30 05:54:34;;;;;;;12.18;8.90;;;;;;;14.86;100.00;101048.81;3561171;40;21273;-61
2021/06/30 05:57:02;;;;;;;12.68;9.23;;;;;;;14.80;100.00;101060.28;3552609;40;20091;-61
2021/06/30 05:59:28;;;;;;;12.40;9.10;;;;;;;14.69;100.00;101045.16;3558773;40;20388;-61
2021/06/30 06:01:55;;;;;;;11.88;9.48;;;;;;;14.78;100.00;101050.63;3557812;40;20055;-60
2021/06/30 06:04:21;;;;;;;11.98;8.50;;;;;;;14.80;100.00;101052.16;3560040;40;20065;-61
2021/06/30 06:06:48;;;;;;;10.90;8.23;;;;;;;14.81;100.00;101056.59;3559486;40;20367;-61
2021/06/30 06:09:14;;;;;;;11.32;8.32;;;;;;;14.87;100.00;101061.38;3557427;40;20034;-62
2021/06/30 06:11:40;;;;;;;10.70;9.48;;;;;;;14.73;100.00;101058.38;3556652;40;20418;-61
2021/06/30 06:14:08;;;;;;;15.68;8.93;;;;;;;14.83;100.00;101053.72;3556963;40;20061;-61
2021/06/30 06:16:35;;;;;;;12.90;9.55;;;;;;;14.91;100.00;101053.75;3556712;40;20166;-61
2021/06/30 06:19:01;;;;;;;13.60;9.07;;;;;;;14.85;100.00;101054.41;3555738;40;20061;-61
2021/06/30 06:21:28;;;;;;;11.13;9.18;;;;;;;14.86;100.00;101064.25;3558041;40;20061;-61
2021/06/30 06:23:54;;;;;;;11.98;8.80;;;;;;;14.68;100.00;101062.41;3558122;40;20438;-61
2021/06/30 06:26:21;;;;;;;14.57;9.10;;;;;;;14.67;100.00;101054.44;3553206;40;20060;-61
2021/06/30 06:28:48;;;;;;;13.15;8.65;;;;;;;14.75;100.00;101059.06;3566068;40;20404;-62
2021/06/30 06:31:16;;;;;;;13.98;8.75;;;;;;;14.70;100.00;101065.81;3560571;40;20436;-62
2021/06/30 06:33:43;;;;;;;13.07;8.95;;;;;;;14.67;100.00;101057.16;3566355;40;20033;-62
2021/06/30 06:36:10;;;;;;;11.15;9.05;;;;;;;14.72;100.00;101060.22;3567388;40;20073;-61
2021/06/30 06:38:38;;;;;;;10.52;9.00;;;;;;;14.90;100.00;101057.50;3565438;40;20041;-61
2021/06/30 06:41:05;;;;;;;14.95;9.77;;;;;;;14.81;100.00;101061.13;3564467;40;20038;-60
2021/06/30 06:43:33;;;;;;;12.27;9.45;;;;;;;14.84;100.00;101058.97;3557996;40;20049;-61
2021/06/30 06:46:00;;;;;;;12.23;10.45;;;;;;;14.93;100.00;101062.59;3566390;40;20053;-61
2021/06/30 06:48:28;;;;;;;14.13;10.20;;;;;;;14.93;100.00;101059.88;3565074;40;20048;-61
2021/06/30 06:50:54;;;;;;;16.92;10.25;;;;;;;15.04;100.00;101062.31;3566593;40;20057;-60
2021/06/30 06:53:21;;;;;;;12.75;8.85;;;;;;;15.09;100.00;101056.41;3565833;40;20045;-61
2021/06/30 06:55:47;;;;;;;13.52;8.75;;;;;;;15.04;100.00;101062.31;3566683;40;20041;-62
2021/06/30 06:58:14;;;;;;;10.48;8.13;;;;;;;15.01;100.00;101056.38;3565243;40;20393;-61
2021/06/30 07:00:40;;;;;;;13.27;8.65;;;;;;;14.88;100.00;101062.19;3566269;40;20416;-61
2021/06/30 07:03:07;;;;;;;10.63;7.80;;;;;;;14.87;100.00;101060.53;3565667;40;20058;-61
2021/06/30 07:05:34;;;;;;;11.07;7.72;;;;;;;14.79;100.00;101068.59;3566389;40;20281;-62
2021/06/30 07:08:01;;;;;;;12.18;7.53;;;;;;;14.84;100.00;101068.94;3566507;40;20041;-62
2021/06/30 07:10:28;;;;;;;10.00;8.25;;;;;;;14.88;100.00;101073.03;3562909;40;20045;-62
2021/06/30 07:12:54;;;;;;;11.13;8.52;;;;;;;14.97;100.00;101076.66;3566422;40;20046;-61
2021/06/30 07:15:21;;;;;;;13.90;8.50;;;;;;;14.92;100.00;101079.84;3565613;40;20100;-62
2021/06/30 07:17:47;;;;;;;10.93;6.97;;;;;;;14.88;100.00;101078.47;3566628;40;20358;-62
2021/06/30 07:20:14;;;;;;;9.93;7.63;;;;;;;14.93;100.00;101072.56;3564383;40;20341;-61
2021/06/30 07:22:42;;;;;;;9.77;7.95;;;;;;;14.96;100.00;101070.41;3565562;40;20051;-62
2021/06/30 07:25:09;;;;;;;13.43;8.20;;;;;;;14.86;100.00;101075.91;3563130;40;20409;-62
2021/06/30 07:27:35;;;;;;;12.75;8.05;;;;;;;14.85;100.00;101070.66;3566306;40;20400;-62
2021/06/30 07:30:02;;;;;;;9.70;7.13;;;;;;;14.93;100.00;101073.44;3566131;40;20044;-62
2021/06/30 07:32:29;;;;;;;10.63;7.30;;;;;;;14.91;100.00;101078.16;3566782;40;20065;-62
2021/06/30 07:34:55;;;;;;;9.25;7.30;;;;;;;14.95;100.00;101070.56;3567211;40;20418;-62
2021/06/30 07:37:21;;;;;;;9.63;8.30;;;;;;;14.98;100.00;101068.38;3566667;40;20072;-62
2021/06/30 07:39:49;;;;;;;12.05;7.90;;;;;;;15.14;100.00;101070.34;3567160;40;20055;-62
2021/06/30 07:42:16;;;;;;;8.60;7.32;;;;;;;15.24;100.00;101072.94;3566587;40;20053;-63
2021/06/30 07:44:43;;;;;;;10.05;7.38;;;;;;;15.40;100.00;101074.88;3567088;40;20045;-62
2021/06/30 07:47:10;;;;;;;12.15;7.80;;;;;;;15.25;100.00;101071.91;3566461;40;20049;-62
2021/06/30 07:49:37;;;;;;;10.10;8.02;;;;;;;15.32;100.00;101070.25;3566655;40;20427;-61
2021/06/30 07:52:04;;;;;;;13.52;7.88;;;;;;;15.08;100.00;101070.97;3566721;40;20375;-62
2021/06/30 07:54:33;;;;;;;11.32;8.02;;;;;;;15.09;100.00;101069.97;3567208;40;20312;-62
2021/06/30 07:57:01;;;;;;;11.25;8.18;;;;;;;15.29;100.00;101076.00;3567100;40;20049;-62
2021/06/30 07:59:27;;;;;;;12.88;8.32;;;;;;;15.17;100.00;101077.28;3566566;40;20151;-62
2021/06/30 08:01:54;;;;;;;12.55;7.90;;;;;;;15.14;100.00;101088.47;3566565;40;20382;-61
2021/06/30 08:04:20;;;;;;;11.45;7.97;;;;;;;15.17;100.00;101093.56;3567765;40;20056;-61
2021/06/30 08:06:47;;;;;;;10.85;7.15;;;;;;;15.24;100.00;101086.50;3568641;40;20049;-62
2021/06/30 08:09:14;;;;;;;8.95;7.80;;;;;;;15.11;100.00;101095.06;3567081;40;20111;-62
2021/06/30 08:11:40;;;;;;;11.05;8.05;;;;;;;15.12;100.00;101099.47;3568574;40;20049;-63
2021/06/30 08:14:08;;;;;;;11.38;8.00;;;;;;;15.14;100.00;101096.59;3567912;40;20049;-62
2021/06/30 08:16:34;;;;;;;10.05;7.47;;;;;;;15.33;100.00;101088.22;3568030;40;20344;-62
2021/06/30 08:19:01;;;;;;;9.27;7.97;;;;;;;15.33;100.00;101090.94;3568803;40;20042;-62
2021/06/30 08:21:27;;;;;;;9.75;8.15;;;;;;;15.34;100.00;101084.50;3568151;40;20043;-62
2021/06/30 08:23:54;;;;;;;11.38;8.10;;;;;;;15.49;100.00;101092.00;3568349;40;20064;-63
2021/06/30 08:26:20;;;;;;;10.43;7.63;;;;;;;15.46;100.00;101092.34;3568093;40;20062;-62
2021/06/30 08:28:47;;;;;;;10.68;8.35;;;;;;;15.39;100.00;101092.16;3567460;40;20045;-61
2021/06/30 08:31:15;;;;;;;13.13;9.27;;;;;;;15.57;100.00;101092.06;3566027;40;20061;-61
2021/06/30 08:33:42;;;;;;;10.80;8.60;;;;;;;15.74;100.00;101098.41;3566211;40;20057;-61
2021/06/30 08:36:09;;;;;;;12.00;8.73;;;;;;;15.56;100.00;101093.06;3565659;40;20084;-61
2021/06/30 08:38:35;;;;;;;10.57;8.43;;;;;;;15.66;100.00;101099.22;3566572;40;20040;-61
2021/06/30 08:41:02;;;;;;;9.38;7.93;;;;;;;15.53;100.00;101109.66;3566672;40;20036;-61
2021/06/30 08:43:29;;;;;;;10.60;8.50;;;;;;;15.53;100.00;101098.81;3566469;40;20077;-61
2021/06/30 08:45:55;;;;;;;13.10;9.55;;;;;;;15.50;100.00;101104.56;3564215;40;20048;-61
2021/06/30 08:48:27;;;;;;;12.73;9.20;;;;;;;15.64;100.00;101103.97;3567510;40;20219;-61
2021/06/30 08:50:57;;;;;;;14.32;10.23;;;;;;;15.72;100.00;101104.00;3567835;40;20053;-61
2021/06/30 08:53:25;;;;;;;11.25;9.30;;;;;;;15.73;100.00;101099.41;3567587;40;20069;-62
2021/06/30 08:55:52;;;;;;;12.50;9.63;;;;;;;15.64;100.00;101101.25;3568202;40;20399;-61
2021/06/30 08:58:19;;;;;;;13.35;9.43;;;;;;;15.63;100.00;101110.41;3567625;40;20063;-61
2021/06/30 09:00:45;;;;;;;12.85;10.15;;;;;;;15.44;100.00;101107.94;3567285;40;20045;-62
2021/06/30 09:03:15;;;;;;;13.00;9.68;;;;;;;15.63;100.00;101104.97;3562775;40;20056;-62
2021/06/30 09:06:12;;;;;;;11.30;10.07;;;;;;;15.64;100.00;101098.53;3568385;40;20045;-61
2021/06/30 09:08:59;;;;;;;16.38;10.40;;;;;;;15.72;100.00;101106.72;3568050;40;20091;-61
2021/06/30 09:11:27;;;;;;;19.02;10.93;;;;;;;15.52;100.00;101102.56;3567523;40;20051;-61
2021/06/30 09:14:11;;;;;;;14.60;10.00;;;;;;;15.76;100.00;101108.06;3567936;40;20116;-61
2021/06/30 09:17:02;;;;;;;14.43;9.80;;;;;;;15.99;100.00;101115.66;3566538;40;20047;-61
2021/06/30 09:19:49;;;;;;;14.27;9.63;;;;;;;15.81;100.00;101106.75;3567605;40;20128;-61
2021/06/30 09:22:18;;;;;;;14.30;9.50;;;;;;;16.00;100.00;101111.91;3565837;40;20320;-62
2021/06/30 09:24:45;;;;;;;;;;;;;;;15.98;100.00;101113.09;3567839;40;20045;-62
2021/06/30 09:27:14;;;;;;;14.48;10.25;;;;;;;16.02;100.00;101114.44;3566596;40;20251;-61
2021/06/30 09:29:42;;;;;;;17.88;10.60;;;;;;;16.10;100.00;101120.75;3567237;40;20317;-61
2021/06/30 09:32:10;;;;;;;14.50;9.88;;;;;;;16.10;100.00;101118.03;3563167;40;20048;-61
2021/06/30 09:34:38;;;;;;;15.43;9.88;;;;;;;15.97;100.00;101123.09;3566466;40;20142;-61
2021/06/30 09:37:06;;;;;;;14.93;9.90;;;;;;;15.90;100.00;101122.94;3564287;40;20052;-61
2021/06/30 09:39:38;;;;;;;14.75;9.57;;;;;;;15.94;100.00;101128.88;3568019;40;20056;-62
2021/06/30 09:42:07;;;;;;;15.93;9.88;;;;;;;15.74;100.00;101128.28;3567314;40;20073;-62
2021/06/30 09:44:33;;;;;;;10.37;9.23;;;;;;;15.82;100.00;101131.03;3567630;40;20059;-62
2021/06/30 09:47:00;;;;;;;12.20;9.40;;;;;;;15.79;100.00;101134.06;3566414;40;20535;-62
2021/06/30 09:49:27;;;;;;;13.27;10.20;;;;;;;15.85;100.00;101135.28;3566246;40;20073;-64
2021/06/30 09:52:09;;;;;;;14.00;9.90;;;;;;;15.85;100.00;101129.84;3567277;40;20067;-62
2021/06/30 09:54:38;;;;;;;12.13;8.95;;;;;;;15.96;100.00;101137.72;3563021;40;20029;-62
2021/06/30 09:57:07;;;;;;;14.38;9.77;;;;;;;15.92;100.00;101130.91;3567654;40;20065;-62
2021/06/30 09:59:37;;;;;;;14.32;9.93;;;;;;;16.13;100.00;101129.59;3566612;40;20393;-61
2021/06/30 10:02:06;;;;;;;14.60;9.93;;;;;;;16.08;100.00;101130.94;3567489;40;20054;-61
2021/06/30 10:04:34;;;;;;;14.88;9.48;;;;;;;16.07;100.00;101131.94;3564680;40;20041;-61
2021/06/30 10:07:06;;;;;;;12.97;10.17;;;;;;;16.20;100.00;101138.78;3566607;40;20393;-62
2021/06/30 10:09:33;;;;;;;13.80;10.00;;;;;;;16.48;100.00;101141.22;3566344;40;20377;-61
2021/06/30 10:12:04;;;;;;;15.27;9.43;;;;;;;16.36;100.00;101133.38;3562564;40;20089;-62
2021/06/30 10:14:31;;;;;;;15.85;8.95;;;;;;;16.18;100.00;101132.66;3566572;40;20053;-61
2021/06/30 10:16:58;;;;;;;13.15;9.60;;;;;;;16.20;100.00;101138.78;3566871;40;20173;-62
2021/06/30 10:19:25;;;;;;;14.30;9.80;;;;;;;15.98;100.00;101135.66;3565521;40;20032;-61
2021/06/30 10:21:51;;;;;;;13.73;10.10;;;;;;;15.90;100.00;101144.63;3565113;40;20052;-61
2021/06/30 10:24:19;;;;;;;14.32;9.93;;;;;;;15.81;100.00;101137.50;3563083;40;20045;-62
2021/06/30 10:26:46;;;;;;;12.95;9.40;;;;;;;15.85;100.00;101138.00;3566410;40;20456;-60
2021/06/30 10:29:15;;;;;;;11.75;9.20;;;;;;;15.90;100.00;101136.50;3565483;40;20048;-61
2021/06/30 10:31:45;;;;;;;11.75;9.02;;;;;;;15.69;100.00;101133.31;3565205;40;20046;-62
2021/06/30 10:34:13;;;;;;;12.57;9.07;;;;;;;15.81;100.00;101133.91;3563275;40;20392;-62
2021/06/30 10:36:51;;;;;;;14.57;9.57;;;;;;;15.97;100.00;101128.53;3566370;40;20061;-61
2021/06/30 10:39:20;;;;;;;12.25;9.40;;;;;;;15.90;100.00;101132.91;3565768;40;20362;-61
2021/06/30 10:41:53;;;;;;;15.00;9.70;;;;;;;15.88;100.00;101129.53;3559806;40;20441;-61
2021/06/30 10:44:23;;;;;;;12.00;9.45;;;;;;;15.79;100.00;101135.94;3563884;40;20388;-60
2021/06/30 10:46:50;;;;;;;13.65;9.57;;;;;;;15.90;100.00;101122.94;3564869;40;20123;-62
2021/06/30 10:49:19;;;;;;;14.38;9.63;;;;;;;15.99;100.00;101131.94;3564902;40;20081;-62
2021/06/30 10:51:47;;;;;;;10.75;9.18;;;;;;;15.98;100.00;101129.41;3566880;40;20323;-62
2021/06/30 10:54:42;;;;;;;12.57;8.85;;;;;;;15.87;100.00;101127.81;3566312;40;20063;-61
2021/06/30 10:57:20;;;;;;;12.40;8.75;;;;;;;15.84;100.00;101129.03;3563898;40;20329;-61
2021/06/30 11:00:22;;;;;;;10.50;8.18;;;;;;;15.93;100.00;101132.59;3566476;40;20069;-61
2021/06/30 11:05:38;;;;;;;12.30;7.82;;;;;;;16.37;100.00;101134.22;3633967;22;20050;-61
2021/06/30 11:08:04;;;;;;;9.43;7.07;;;;;;;16.27;100.00;101128.97;3611743;39;20061;-60
2021/06/30 11:10:51;;;;;;;8.60;7.35;;;;;;;16.32;100.00;101132.00;3608173;39;20034;-61
2021/06/30 11:13:17;;;;;;;10.73;7.43;;;;;;;16.37;100.00;101131.50;3613931;39;20047;-60
2021/06/30 11:15:45;;;;;;;11.15;7.32;;;;;;;16.32;100.00;101144.75;3611041;39;20039;-61
2021/06/30 11:18:42;;;;;;;9.48;7.05;;;;;;;16.35;100.00;101139.81;3614217;39;20047;-62
2021/06/30 11:21:11;;;;;;;9.82;7.10;;;;;;;16.49;100.00;101143.75;3615547;39;20155;-62
2021/06/30 11:23:42;;;;;;;8.35;6.95;;;;;;;16.66;100.00;101150.03;3611021;39;20287;-62